sensor_id;sensor_type;location;lat;lon;timestamp;pressure;altitude;pressure_sealevel;temperature;humidity
70544;BME280;58097;48.364;-1.224;2023-02-13T00:00:23;101298.50;;;5.26;85.92
70544;BME280;58097;48.364;-1.224;2023-02-13T00:02:49;101300.06;;;5.30;85.41
70544;BME280;58097;48.364;-1.224;2023-02-13T00:05:14;101297.44;;;5.28;85.85
70544;BME280;58097;48.364;-1.224;2023-02-13T00:07:40;101305.47;;;5.32;85.31
70544;BME280;58097;48.364;-1.224;2023-02-13T00:10:06;101304.63;;;5.15;87.32
70544;BME280;58097;48.364;-1.224;2023-02-13T00:12:31;101307.91;;;5.22;85.78
70544;BME280;58097;48.364;-1.224;2023-02-13T00:14:57;101305.06;;;5.23;85.83
70544;BME280;58097;48.364;-1.224;2023-02-13T00:17:23;101305.25;;;5.20;86.83
70544;BME280;58097;48.364;-1.224;2023-02-13T00:19:49;101307.16;;;5.18;86.39
70544;BME280;58097;48.364;-1.224;2023-02-13T00:22:15;101302.94;;;5.13;86.85
70544;BME280;58097;48.364;-1.224;2023-02-13T00:24:41;101295.78;;;5.10;86.97
70544;BME280;58097;48.364;-1.224;2023-02-13T00:27:06;101287.56;;;5.10;86.09
70544;BME280;58097;48.364;-1.224;2023-02-13T00:29:32;101297.34;;;5.00;87.10
70544;BME280;58097;48.364;-1.224;2023-02-13T00:31:57;101299.78;;;5.05;86.63
70544;BME280;58097;48.364;-1.224;2023-02-13T00:34:22;101294.13;;;5.08;86.02
70544;BME280;58097;48.364;-1.224;2023-02-13T00:36:48;101293.25;;;5.07;85.75
70544;BME280;58097;48.364;-1.224;2023-02-13T00:39:13;101306.56;;;5.13;85.48
70544;BME280;58097;48.364;-1.224;2023-02-13T00:41:38;101298.44;;;5.12;85.13
70544;BME280;58097;48.364;-1.224;2023-02-13T00:44:04;101293.34;;;5.06;85.18
70544;BME280;58097;48.364;-1.224;2023-02-13T00:46:29;101294.88;;;4.95;85.65
70544;BME280;58097;48.364;-1.224;2023-02-13T00:48:54;101293.81;;;4.98;84.77
70544;BME280;58097;48.364;-1.224;2023-02-13T00:51:20;101297.53;;;4.97;85.24
70544;BME280;58097;48.364;-1.224;2023-02-13T00:53:45;101292.22;;;4.94;85.35
70544;BME280;58097;48.364;-1.224;2023-02-13T00:56:10;101293.25;;;4.91;85.81
70544;BME280;58097;48.364;-1.224;2023-02-13T00:58:36;101289.59;;;4.92;84.86
70544;BME280;58097;48.364;-1.224;2023-02-13T01:01:01;101294.19;;;4.92;84.63
70544;BME280;58097;48.364;-1.224;2023-02-13T01:03:27;101294.53;;;4.86;84.38
70544;BME280;58097;48.364;-1.224;2023-02-13T01:05:52;101292.06;;;4.81;84.83
70544;BME280;58097;48.364;-1.224;2023-02-13T01:08:19;101283.25;;;4.76;84.51
70544;BME280;58097;48.364;-1.224;2023-02-13T01:10:46;101279.81;;;4.73;85.93
70544;BME280;58097;48.364;-1.224;2023-02-13T01:13:13;101283.50;;;4.72;85.79
70544;BME280;58097;48.364;-1.224;2023-02-13T01:15:39;101277.94;;;4.73;85.53
70544;BME280;58097;48.364;-1.224;2023-02-13T01:18:05;101284.22;;;4.75;85.12
70544;BME280;58097;48.364;-1.224;2023-02-13T01:20:30;101277.25;;;4.70;86.84
70544;BME280;58097;48.364;-1.224;2023-02-13T01:22:57;101276.63;;;4.64;86.90
70544;BME280;58097;48.364;-1.224;2023-02-13T01:25:22;101283.88;;;4.65;86.36
70544;BME280;58097;48.364;-1.224;2023-02-13T01:27:48;101286.25;;;4.72;86.20
70544;BME280;58097;48.364;-1.224;2023-02-13T01:30:15;101275.38;;;4.70;86.29
70544;BME280;58097;48.364;-1.224;2023-02-13T01:32:43;101284.50;;;4.71;86.72
70544;BME280;58097;48.364;-1.224;2023-02-13T01:35:09;101279.19;;;4.68;87.28
70544;BME280;58097;48.364;-1.224;2023-02-13T01:37:36;101280.88;;;4.70;87.22
70544;BME280;58097;48.364;-1.224;2023-02-13T01:40:03;101279.09;;;4.69;88.13
70544;BME280;58097;48.364;-1.224;2023-02-13T01:42:31;101280.16;;;4.66;88.30
70544;BME280;58097;48.364;-1.224;2023-02-13T01:45:03;101281.84;;;4.69;87.72
70544;BME280;58097;48.364;-1.224;2023-02-13T01:47:38;101286.44;;;4.69;87.51
70544;BME280;58097;48.364;-1.224;2023-02-13T01:50:12;101287.84;;;4.76;87.25
70544;BME280;58097;48.364;-1.224;2023-02-13T01:52:45;101287.13;;;4.72;87.81
70544;BME280;58097;48.364;-1.224;2023-02-13T01:55:13;101286.34;;;4.70;88.68
70544;BME280;58097;48.364;-1.224;2023-02-13T01:57:40;101277.63;;;4.63;89.93
70544;BME280;58097;48.364;-1.224;2023-02-13T02:00:10;101281.94;;;4.68;89.35
70544;BME280;58097;48.364;-1.224;2023-02-13T02:02:43;101276.56;;;4.66;89.53
70544;BME280;58097;48.364;-1.224;2023-02-13T02:05:09;101280.97;;;4.69;89.07
70544;BME280;58097;48.364;-1.224;2023-02-13T02:07:37;101281.75;;;4.71;88.89
70544;BME280;58097;48.364;-1.224;2023-02-13T02:10:10;101292.53;;;4.74;88.84
70544;BME280;58097;48.364;-1.224;2023-02-13T02:13:11;101282.53;;;4.73;88.99
70544;BME280;58097;48.364;-1.224;2023-02-13T02:15:35;101281.56;;;4.74;88.60
70544;BME280;58097;48.364;-1.224;2023-02-13T02:18:01;101274.69;;;4.66;88.85
70544;BME280;58097;48.364;-1.224;2023-02-13T02:20:40;101270.88;;;4.69;89.20
70544;BME280;58097;48.364;-1.224;2023-02-13T02:35:36;101251.28;;;4.61;89.39
70544;BME280;58097;48.364;-1.224;2023-02-13T02:43:42;101255.72;;;4.63;88.82
70544;BME280;58097;48.364;-1.224;2023-02-13T02:46:37;101258.50;;;4.62;89.23
70544;BME280;58097;48.364;-1.224;2023-02-13T02:52:18;101249.50;;;4.60;88.89
70544;BME280;58097;48.364;-1.224;2023-02-13T02:54:52;101251.53;;;4.56;89.02
70544;BME280;58097;48.364;-1.224;2023-02-13T02:57:37;101250.66;;;4.56;89.41
70544;BME280;58097;48.364;-1.224;2023-02-13T03:00:23;101250.75;;;4.54;89.27
70544;BME280;58097;48.364;-1.224;2023-02-13T03:03:17;101255.84;;;4.60;88.50
70544;BME280;58097;48.364;-1.224;2023-02-13T03:06:08;101253.22;;;4.59;88.67
70544;BME280;58097;48.364;-1.224;2023-02-13T03:08:39;101253.22;;;4.59;88.35
70544;BME280;58097;48.364;-1.224;2023-02-13T03:11:24;101256.22;;;4.54;89.41
70544;BME280;58097;48.364;-1.224;2023-02-13T03:14:09;101258.97;;;4.54;89.39
70544;BME280;58097;48.364;-1.224;2023-02-13T03:16:37;101252.44;;;4.57;89.11
70544;BME280;58097;48.364;-1.224;2023-02-13T03:19:54;101257.03;;;4.56;88.94
70544;BME280;58097;48.364;-1.224;2023-02-13T03:25:51;101253.50;;;4.54;89.28
70544;BME280;58097;48.364;-1.224;2023-02-13T03:31:35;101247.03;;;4.55;89.43
70544;BME280;58097;48.364;-1.224;2023-02-13T03:34:05;101242.25;;;4.59;89.20
70544;BME280;58097;48.364;-1.224;2023-02-13T03:39:46;101238.72;;;4.57;89.02
70544;BME280;58097;48.364;-1.224;2023-02-13T03:42:26;101245.97;;;4.58;88.89
70544;BME280;58097;48.364;-1.224;2023-02-13T03:44:59;101240.50;;;4.58;88.91
70544;BME280;58097;48.364;-1.224;2023-02-13T03:47:46;101236.78;;;4.59;88.31
70544;BME280;58097;48.364;-1.224;2023-02-13T03:50:14;101243.25;;;4.58;88.20
70544;BME280;58097;48.364;-1.224;2023-02-13T03:52:52;101237.75;;;4.58;88.48
70544;BME280;58097;48.364;-1.224;2023-02-13T03:55:22;101235.72;;;4.61;87.84
70544;BME280;58097;48.364;-1.224;2023-02-13T03:58:23;101238.47;;;4.61;87.56
70544;BME280;58097;48.364;-1.224;2023-02-13T04:01:11;101234.75;;;4.62;87.33
70544;BME280;58097;48.364;-1.224;2023-02-13T04:03:47;101236.00;;;4.57;87.34
70544;BME280;58097;48.364;-1.224;2023-02-13T04:06:19;101245.19;;;4.56;87.19
70544;BME280;58097;48.364;-1.224;2023-02-13T04:08:45;101238.91;;;4.54;87.73
70544;BME280;58097;48.364;-1.224;2023-02-13T04:11:24;101235.66;;;4.47;88.20
70544;BME280;58097;48.364;-1.224;2023-02-13T04:13:56;101230.09;;;4.49;87.68
70544;BME280;58097;48.364;-1.224;2023-02-13T04:16:38;101232.31;;;4.42;88.30
70544;BME280;58097;48.364;-1.224;2023-02-13T04:19:05;101234.88;;;4.45;88.13
70544;BME280;58097;48.364;-1.224;2023-02-13T04:21:37;101232.69;;;4.36;88.27
70544;BME280;58097;48.364;-1.224;2023-02-13T04:24:05;101238.25;;;4.34;88.86
70544;BME280;58097;48.364;-1.224;2023-02-13T04:26:36;101233.66;;;4.35;88.89
70544;BME280;58097;48.364;-1.224;2023-02-13T04:29:02;101226.56;;;4.31;88.96
70544;BME280;58097;48.364;-1.224;2023-02-13T04:31:27;101226.94;;;4.25;89.86
70544;BME280;58097;48.364;-1.224;2023-02-13T04:33:53;101237.44;;;4.32;89.01
70544;BME280;58097;48.364;-1.224;2023-02-13T04:36:18;101234.88;;;4.29;89.63
70544;BME280;58097;48.364;-1.224;2023-02-13T04:38:43;101234.63;;;4.34;88.79
70544;BME280;58097;48.364;-1.224;2023-02-13T04:41:10;101234.69;;;4.32;89.09
70544;BME280;58097;48.364;-1.224;2023-02-13T04:43:35;101235.44;;;4.36;88.60
70544;BME280;58097;48.364;-1.224;2023-02-13T04:46:02;101228.09;;;4.37;88.31
70544;BME280;58097;48.364;-1.224;2023-02-13T04:48:27;101230.84;;;4.37;87.96
70544;BME280;58097;48.364;-1.224;2023-02-13T04:50:52;101234.69;;;4.32;88.92
70544;BME280;58097;48.364;-1.224;2023-02-13T04:53:18;101236.56;;;4.32;88.91
70544;BME280;58097;48.364;-1.224;2023-02-13T04:55:43;101226.66;;;4.29;88.81
70544;BME280;58097;48.364;-1.224;2023-02-13T04:58:08;101226.75;;;4.28;88.79
70544;BME280;58097;48.364;-1.224;2023-02-13T05:00:34;101228.44;;;4.30;88.33
70544;BME280;58097;48.364;-1.224;2023-02-13T05:03:04;101234.19;;;4.26;88.77
70544;BME280;58097;48.364;-1.224;2023-02-13T05:05:29;101229.94;;;4.20;89.17
70544;BME280;58097;48.364;-1.224;2023-02-13T05:07:55;101228.38;;;4.16;88.81
70544;BME280;58097;48.364;-1.224;2023-02-13T05:10:20;101233.75;;;4.18;88.86
70544;BME280;58097;48.364;-1.224;2023-02-13T05:12:46;101227.41;;;4.17;88.73
70544;BME280;58097;48.364;-1.224;2023-02-13T05:15:12;101235.41;;;4.20;88.16
70544;BME280;58097;48.364;-1.224;2023-02-13T05:17:37;101236.56;;;4.16;88.64
70544;BME280;58097;48.364;-1.224;2023-02-13T05:20:03;101232.94;;;4.16;88.45
70544;BME280;58097;48.364;-1.224;2023-02-13T05:22:28;101234.53;;;4.20;88.11
70544;BME280;58097;48.364;-1.224;2023-02-13T05:25:12;101231.19;;;4.15;88.21
70544;BME280;58097;48.364;-1.224;2023-02-13T05:27:37;101237.81;;;4.11;88.71
70544;BME280;58097;48.364;-1.224;2023-02-13T05:30:03;101235.06;;;4.11;87.87
70544;BME280;58097;48.364;-1.224;2023-02-13T05:32:28;101234.53;;;4.04;88.06
70544;BME280;58097;48.364;-1.224;2023-02-13T05:34:54;101231.72;;;4.06;87.96
70544;BME280;58097;48.364;-1.224;2023-02-13T05:37:19;101229.22;;;4.01;87.88
70544;BME280;58097;48.364;-1.224;2023-02-13T05:39:44;101223.75;;;4.01;87.52
70544;BME280;58097;48.364;-1.224;2023-02-13T05:42:10;101223.06;;;3.97;87.90
70544;BME280;58097;48.364;-1.224;2023-02-13T05:44:35;101231.00;;;4.02;87.46
70544;BME280;58097;48.364;-1.224;2023-02-13T05:47:00;101230.19;;;4.00;87.75
70544;BME280;58097;48.364;-1.224;2023-02-13T05:49:26;101224.81;;;3.98;87.83
70544;BME280;58097;48.364;-1.224;2023-02-13T05:51:51;101221.09;;;3.99;87.58
70544;BME280;58097;48.364;-1.224;2023-02-13T05:54:17;101223.06;;;3.97;87.77
70544;BME280;58097;48.364;-1.224;2023-02-13T05:56:42;101224.19;;;3.93;87.54
70544;BME280;58097;48.364;-1.224;2023-02-13T05:59:08;101223.31;;;3.93;87.21
70544;BME280;58097;48.364;-1.224;2023-02-13T06:01:33;101223.41;;;3.91;87.41
70544;BME280;58097;48.364;-1.224;2023-02-13T06:03:59;101220.94;;;3.87;87.78
70544;BME280;58097;48.364;-1.224;2023-02-13T06:06:24;101224.81;;;3.83;87.64
70544;BME280;58097;48.364;-1.224;2023-02-13T06:08:50;101223.22;;;3.79;88.02
70544;BME280;58097;48.364;-1.224;2023-02-13T06:11:15;101225.88;;;3.80;87.55
70544;BME280;58097;48.364;-1.224;2023-02-13T06:13:40;101235.06;;;3.79;87.06
70544;BME280;58097;48.364;-1.224;2023-02-13T06:16:07;101235.38;;;3.73;86.60
70544;BME280;58097;48.364;-1.224;2023-02-13T06:18:32;101240.13;;;3.69;86.42
70544;BME280;58097;48.364;-1.224;2023-02-13T06:20:58;101230.44;;;3.64;86.69
70544;BME280;58097;48.364;-1.224;2023-02-13T06:23:23;101240.47;;;3.63;87.12
70544;BME280;58097;48.364;-1.224;2023-02-13T06:25:49;101243.22;;;3.63;86.79
70544;BME280;58097;48.364;-1.224;2023-02-13T06:28:14;101242.66;;;3.57;85.66
70544;BME280;58097;48.364;-1.224;2023-02-13T06:30:40;101254.25;;;3.45;85.91
70544;BME280;58097;48.364;-1.224;2023-02-13T06:33:05;101252.75;;;3.39;85.98
70544;BME280;58097;48.364;-1.224;2023-02-13T06:35:30;101251.25;;;3.33;85.52
70544;BME280;58097;48.364;-1.224;2023-02-13T06:37:56;101249.56;;;3.31;85.77
70544;BME280;58097;48.364;-1.224;2023-02-13T06:40:21;101249.56;;;3.31;85.65
70544;BME280;58097;48.364;-1.224;2023-02-13T06:42:46;101248.84;;;3.27;85.69
70544;BME280;58097;48.364;-1.224;2023-02-13T06:45:12;101258.09;;;3.25;85.55
70544;BME280;58097;48.364;-1.224;2023-02-13T06:47:45;101260.91;;;3.23;85.48
70544;BME280;58097;48.364;-1.224;2023-02-13T06:50:13;101256.41;;;3.22;86.18
70544;BME280;58097;48.364;-1.224;2023-02-13T06:52:38;101267.50;;;3.19;87.90
70544;BME280;58097;48.364;-1.224;2023-02-13T06:55:04;101260.81;;;3.25;87.25
70544;BME280;58097;48.364;-1.224;2023-02-13T06:57:30;101263.63;;;3.23;87.29
70544;BME280;58097;48.364;-1.224;2023-02-13T06:59:58;101265.31;;;3.26;87.12
70544;BME280;58097;48.364;-1.224;2023-02-13T07:02:24;101261.63;;;3.27;87.72
70544;BME280;58097;48.364;-1.224;2023-02-13T07:04:49;101266.91;;;3.30;87.48
70544;BME280;58097;48.364;-1.224;2023-02-13T07:07:14;101266.81;;;3.31;87.60
70544;BME280;58097;48.364;-1.224;2023-02-13T07:09:39;101278.72;;;3.30;87.29
70544;BME280;58097;48.364;-1.224;2023-02-13T07:12:05;101282.44;;;3.29;87.57
70544;BME280;58097;48.364;-1.224;2023-02-13T07:14:31;101288.69;;;3.31;87.55
70544;BME280;58097;48.364;-1.224;2023-02-13T07:16:57;101279.53;;;3.32;87.54
70544;BME280;58097;48.364;-1.224;2023-02-13T07:19:22;101276.00;;;3.30;87.59
70544;BME280;58097;48.364;-1.224;2023-02-13T07:21:48;101285.00;;;3.32;88.14
70544;BME280;58097;48.364;-1.224;2023-02-13T07:24:13;101284.03;;;3.33;87.80
70544;BME280;58097;48.364;-1.224;2023-02-13T07:26:38;101287.38;;;3.38;87.95
70544;BME280;58097;48.364;-1.224;2023-02-13T07:29:04;101298.25;;;3.40;88.72
70544;BME280;58097;48.364;-1.224;2023-02-13T07:31:34;101300.88;;;3.41;88.15
70544;BME280;58097;48.364;-1.224;2023-02-13T07:34:00;101299.91;;;3.42;87.86
70544;BME280;58097;48.364;-1.224;2023-02-13T07:36:26;101305.31;;;3.44;88.13
70544;BME280;58097;48.364;-1.224;2023-02-13T07:38:52;101309.72;;;3.47;87.67
70544;BME280;58097;48.364;-1.224;2023-02-13T07:41:17;101307.81;;;3.49;87.81
70544;BME280;58097;48.364;-1.224;2023-02-13T07:43:43;101311.53;;;3.48;87.79
70544;BME280;58097;48.364;-1.224;2023-02-13T07:46:08;101312.06;;;3.54;87.65
70544;BME280;58097;48.364;-1.224;2023-02-13T07:48:34;101316.81;;;3.51;88.59
70544;BME280;58097;48.364;-1.224;2023-02-13T07:51:03;101320.44;;;3.51;88.12
70544;BME280;58097;48.364;-1.224;2023-02-13T07:53:29;101324.22;;;3.49;88.63
70544;BME280;58097;48.364;-1.224;2023-02-13T07:55:55;101319.72;;;3.48;88.88
70544;BME280;58097;48.364;-1.224;2023-02-13T07:58:20;101325.19;;;3.48;89.16
70544;BME280;58097;48.364;-1.224;2023-02-13T08:00:46;101329.44;;;3.53;88.81
70544;BME280;58097;48.364;-1.224;2023-02-13T08:03:11;101325.56;;;3.57;88.23
70544;BME280;58097;48.364;-1.224;2023-02-13T08:05:37;101324.69;;;3.57;88.59
70544;BME280;58097;48.364;-1.224;2023-02-13T08:08:03;101326.28;;;3.61;88.53
70544;BME280;58097;48.364;-1.224;2023-02-13T08:10:28;101327.41;;;3.57;88.90
70544;BME280;58097;48.364;-1.224;2023-02-13T08:13:13;101329.19;;;3.58;89.54
70544;BME280;58097;48.364;-1.224;2023-02-13T08:15:39;101317.03;;;3.63;89.43
70544;BME280;58097;48.364;-1.224;2023-02-13T08:18:05;101329.72;;;3.64;89.70
70544;BME280;58097;48.364;-1.224;2023-02-13T08:20:31;101322.31;;;3.66;90.24
70544;BME280;58097;48.364;-1.224;2023-02-13T08:23:04;101326.97;;;3.82;89.83
70544;BME280;58097;48.364;-1.224;2023-02-13T08:25:30;101327.50;;;3.88;89.75
70544;BME280;58097;48.364;-1.224;2023-02-13T08:27:55;101333.78;;;3.90;89.90
70544;BME280;58097;48.364;-1.224;2023-02-13T08:30:21;101328.13;;;3.93;89.53
70544;BME280;58097;48.364;-1.224;2023-02-13T08:32:46;101324.78;;;3.88;89.76
70544;BME280;58097;48.364;-1.224;2023-02-13T08:35:11;101325.50;;;3.92;89.53
70544;BME280;58097;48.364;-1.224;2023-02-13T08:37:36;101324.34;;;3.96;89.73
70544;BME280;58097;48.364;-1.224;2023-02-13T08:40:02;101326.50;;;4.07;89.28
70544;BME280;58097;48.364;-1.224;2023-02-13T08:42:28;101319.47;;;4.18;88.71
70544;BME280;58097;48.364;-1.224;2023-02-13T08:44:53;101317.16;;;4.26;88.63
70544;BME280;58097;48.364;-1.224;2023-02-13T08:47:18;101326.78;;;4.33;88.55
70544;BME280;58097;48.364;-1.224;2023-02-13T08:49:43;101328.75;;;4.47;88.46
70544;BME280;58097;48.364;-1.224;2023-02-13T08:52:09;101332.88;;;4.54;87.96
70544;BME280;58097;48.364;-1.224;2023-02-13T08:54:34;101335.81;;;4.67;88.01
70544;BME280;58097;48.364;-1.224;2023-02-13T08:57:03;101337.13;;;4.76;87.44
70544;BME280;58097;48.364;-1.224;2023-02-13T08:59:28;101330.22;;;4.84;87.27
70544;BME280;58097;48.364;-1.224;2023-02-13T09:01:53;101339.22;;;5.02;87.45
70544;BME280;58097;48.364;-1.224;2023-02-13T09:04:19;101335.13;;;5.09;86.48
70544;BME280;58097;48.364;-1.224;2023-02-13T09:06:44;101328.06;;;5.21;86.42
70544;BME280;58097;48.364;-1.224;2023-02-13T09:09:10;101334.53;;;5.34;85.49
70544;BME280;58097;48.364;-1.224;2023-02-13T09:11:35;101338.44;;;5.60;85.84
70544;BME280;58097;48.364;-1.224;2023-02-13T09:14:01;101337.06;;;5.67;84.17
70544;BME280;58097;48.364;-1.224;2023-02-13T09:16:26;101332.31;;;5.85;85.47
70544;BME280;58097;48.364;-1.224;2023-02-13T09:18:51;101338.13;;;5.95;84.89
70544;BME280;58097;48.364;-1.224;2023-02-13T09:21:19;101341.53;;;5.98;84.72
70544;BME280;58097;48.364;-1.224;2023-02-13T09:23:46;101341.31;;;5.87;83.46
70544;BME280;58097;48.364;-1.224;2023-02-13T09:26:14;101329.88;;;5.95;83.83
70544;BME280;58097;48.364;-1.224;2023-02-13T09:28:40;101329.47;;;5.86;83.15
70544;BME280;58097;48.364;-1.224;2023-02-13T09:31:17;101328.44;;;5.73;83.16
70544;BME280;58097;48.364;-1.224;2023-02-13T09:33:44;101334.72;;;5.75;83.50
70544;BME280;58097;48.364;-1.224;2023-02-13T09:36:13;101337.00;;;5.83;84.38
70544;BME280;58097;48.364;-1.224;2023-02-13T09:38:39;101331.94;;;5.91;84.21
70544;BME280;58097;48.364;-1.224;2023-02-13T09:41:15;101334.69;;;5.91;83.22
70544;BME280;58097;48.364;-1.224;2023-02-13T09:43:47;101332.81;;;6.06;83.53
70544;BME280;58097;48.364;-1.224;2023-02-13T09:46:19;101329.88;;;6.23;83.44
70544;BME280;58097;48.364;-1.224;2023-02-13T09:48:52;101324.19;;;6.40;83.42
70544;BME280;58097;48.364;-1.224;2023-02-13T09:51:20;101331.50;;;6.68;83.95
70544;BME280;58097;48.364;-1.224;2023-02-13T09:54:07;101331.31;;;6.57;81.47
70544;BME280;58097;48.364;-1.224;2023-02-13T09:56:47;101329.56;;;6.83;83.03
70544;BME280;58097;48.364;-1.224;2023-02-13T10:01:56;101334.84;;;7.13;80.26
70544;BME280;58097;48.364;-1.224;2023-02-13T10:04:47;101331.63;;;7.33;80.74
70544;BME280;58097;48.364;-1.224;2023-02-13T10:10:06;101334.66;;;7.68;80.92
70544;BME280;58097;48.364;-1.224;2023-02-13T10:18:20;101327.97;;;7.98;79.15
70544;BME280;58097;48.364;-1.224;2023-02-13T10:20:50;101331.25;;;8.03;79.12
70544;BME280;58097;48.364;-1.224;2023-02-13T10:23:30;101335.13;;;7.88;78.02
70544;BME280;58097;48.364;-1.224;2023-02-13T10:26:05;101330.72;;;7.98;79.04
70544;BME280;58097;48.364;-1.224;2023-02-13T10:28:54;101337.53;;;7.80;77.16
70544;BME280;58097;48.364;-1.224;2023-02-13T10:31:38;101335.66;;;8.05;78.88
70544;BME280;58097;48.364;-1.224;2023-02-13T10:34:04;101335.78;;;8.04;78.12
70544;BME280;58097;48.364;-1.224;2023-02-13T10:36:36;101333.59;;;8.34;80.01
70544;BME280;58097;48.364;-1.224;2023-02-13T10:50:47;101331.81;;;8.46;77.25
70544;BME280;58097;48.364;-1.224;2023-02-13T10:56:32;101338.09;;;8.85;77.25
70544;BME280;58097;48.364;-1.224;2023-02-13T11:04:12;101339.47;;;9.27;75.46
70544;BME280;58097;48.364;-1.224;2023-02-13T11:06:49;101350.22;;;9.54;77.53
70544;BME280;58097;48.364;-1.224;2023-02-13T11:09:15;101347.41;;;9.67;74.13
70544;BME280;58097;48.364;-1.224;2023-02-13T11:11:41;101345.28;;;9.81;76.22
70544;BME280;58097;48.364;-1.224;2023-02-13T11:14:19;101349.75;;;9.95;74.52
70544;BME280;58097;48.364;-1.224;2023-02-13T11:17:04;101341.19;;;9.87;75.21
70544;BME280;58097;48.364;-1.224;2023-02-13T11:22:37;101343.53;;;10.27;74.65
70544;BME280;58097;48.364;-1.224;2023-02-13T11:25:17;101336.78;;;10.42;75.61
70544;BME280;58097;48.364;-1.224;2023-02-13T11:27:44;101336.63;;;10.21;71.70
70544;BME280;58097;48.364;-1.224;2023-02-13T11:35:33;101329.66;;;9.93;71.30
70544;BME280;58097;48.364;-1.224;2023-02-13T11:40:41;101336.25;;;10.37;72.06
70544;BME280;58097;48.364;-1.224;2023-02-13T11:43:28;101322.66;;;10.67;74.69
70544;BME280;58097;48.364;-1.224;2023-02-13T11:46:16;101325.53;;;10.66;70.73
70544;BME280;58097;48.364;-1.224;2023-02-13T11:48:43;101322.53;;;10.69;71.07
70544;BME280;58097;48.364;-1.224;2023-02-13T11:51:08;101317.25;;;10.77;71.48
70544;BME280;58097;48.364;-1.224;2023-02-13T11:53:38;101315.09;;;10.80;70.37
70544;BME280;58097;48.364;-1.224;2023-02-13T11:56:07;101307.81;;;10.79;72.05
70544;BME280;58097;48.364;-1.224;2023-02-13T11:58:33;101306.91;;;10.90;70.54
70544;BME280;58097;48.364;-1.224;2023-02-13T12:04:13;101297.13;;;11.18;71.00
70544;BME280;58097;48.364;-1.224;2023-02-13T12:07:16;101304.41;;;11.30;69.61
70544;BME280;58097;48.364;-1.224;2023-02-13T12:09:44;101302.84;;;11.37;71.18
70544;BME280;58097;48.364;-1.224;2023-02-13T12:12:17;101300.63;;;11.52;70.88
70544;BME280;58097;48.364;-1.224;2023-02-13T12:14:44;101292.94;;;11.56;68.98
70544;BME280;58097;48.364;-1.224;2023-02-13T12:17:22;101292.06;;;11.55;68.11
70544;BME280;58097;48.364;-1.224;2023-02-13T12:19:49;101298.22;;;11.59;67.67
70544;BME280;58097;48.364;-1.224;2023-02-13T12:22:46;101280.78;;;11.68;67.07
70544;BME280;58097;48.364;-1.224;2023-02-13T12:28:22;101291.78;;;11.90;69.29
70544;BME280;58097;48.364;-1.224;2023-02-13T12:31:06;101289.78;;;12.02;68.81
70544;BME280;58097;48.364;-1.224;2023-02-13T12:39:54;101279.28;;;12.26;67.80
70544;BME280;58097;48.364;-1.224;2023-02-13T12:42:42;101275.31;;;12.19;67.17
70544;BME280;58097;48.364;-1.224;2023-02-13T12:53:19;101267.78;;;12.40;67.52
70544;BME280;58097;48.364;-1.224;2023-02-13T12:56:50;101273.28;;;12.61;67.38
70544;BME280;58097;48.364;-1.224;2023-02-13T12:59:03;101266.59;;;12.74;67.37
70544;BME280;58097;48.364;-1.224;2023-02-13T13:15:31;101257.00;;;13.07;61.47
70544;BME280;58097;48.364;-1.224;2023-02-13T13:18:15;101256.09;;;12.96;59.70
70544;BME280;58097;48.364;-1.224;2023-02-13T13:20:56;101251.00;;;12.92;60.73
70544;BME280;58097;48.364;-1.224;2023-02-13T13:23:31;101249.81;;;12.94;61.94
70544;BME280;58097;48.364;-1.224;2023-02-13T13:28:57;101247.78;;;12.96;62.08
70544;BME280;58097;48.364;-1.224;2023-02-13T13:31:25;101246.47;;;13.00;60.51
70544;BME280;58097;48.364;-1.224;2023-02-13T13:33:53;101245.19;;;13.05;62.43
70544;BME280;58097;48.364;-1.224;2023-02-13T13:42:15;101239.50;;;13.25;64.24
70544;BME280;58097;48.364;-1.224;2023-02-13T13:50:35;101234.69;;;13.18;60.20
70544;BME280;58097;48.364;-1.224;2023-02-13T13:53:16;101218.91;;;13.28;60.87
70544;BME280;58097;48.364;-1.224;2023-02-13T13:58:46;101231.19;;;13.25;59.51
70544;BME280;58097;48.364;-1.224;2023-02-13T14:01:29;101216.44;;;13.35;60.37
70544;BME280;58097;48.364;-1.224;2023-02-13T14:03:59;101209.09;;;13.43;62.76
70544;BME280;58097;48.364;-1.224;2023-02-13T14:09:38;101211.28;;;13.49;61.46
70544;BME280;58097;48.364;-1.224;2023-02-13T14:12:36;101205.59;;;13.60;60.59
70544;BME280;58097;48.364;-1.224;2023-02-13T14:15:02;101209.34;;;13.69;62.02
70544;BME280;58097;48.364;-1.224;2023-02-13T14:22:55;101202.81;;;13.51;56.82
70544;BME280;58097;48.364;-1.224;2023-02-13T14:25:23;101198.41;;;13.58;56.62
70544;BME280;58097;48.364;-1.224;2023-02-13T14:28:24;101195.03;;;13.64;58.73
70544;BME280;58097;48.364;-1.224;2023-02-13T14:31:04;101193.97;;;13.75;57.62
70544;BME280;58097;48.364;-1.224;2023-02-13T14:33:31;101185.66;;;13.75;57.07
70544;BME280;58097;48.364;-1.224;2023-02-13T14:36:03;101183.00;;;13.73;55.63
70544;BME280;58097;48.364;-1.224;2023-02-13T14:38:30;101183.13;;;13.81;57.12
70544;BME280;58097;48.364;-1.224;2023-02-13T14:40:56;101176.16;;;13.68;53.29
70544;BME280;58097;48.364;-1.224;2023-02-13T14:43:26;101176.28;;;13.76;59.09
70544;BME280;58097;48.364;-1.224;2023-02-13T14:46:38;101177.88;;;13.78;56.53
70544;BME280;58097;48.364;-1.224;2023-02-13T14:48:50;101182.09;;;13.92;58.37
70544;BME280;58097;48.364;-1.224;2023-02-13T14:51:33;101181.06;;;13.83;55.22
70544;BME280;58097;48.364;-1.224;2023-02-13T14:54:06;101178.44;;;13.91;58.08
70544;BME280;58097;48.364;-1.224;2023-02-13T14:56:36;101169.59;;;14.06;60.54
70544;BME280;58097;48.364;-1.224;2023-02-13T14:59:11;101180.06;;;14.21;61.03
70544;BME280;58097;48.364;-1.224;2023-02-13T15:01:54;101184.53;;;14.32;60.03
70544;BME280;58097;48.364;-1.224;2023-02-13T15:04:30;101180.00;;;14.31;58.66
70544;BME280;58097;48.364;-1.224;2023-02-13T15:07:01;101178.03;;;14.41;58.58
70544;BME280;58097;48.364;-1.224;2023-02-13T15:09:39;101174.38;;;14.50;59.24
70544;BME280;58097;48.364;-1.224;2023-02-13T15:12:28;101179.69;;;14.62;59.84
70544;BME280;58097;48.364;-1.224;2023-02-13T15:14:54;101182.31;;;14.63;58.57
70544;BME280;58097;48.364;-1.224;2023-02-13T15:17:31;101185.25;;;14.62;56.83